sensor_id;sensor_type;location;lat;lon;timestamp;temperature;humidity
12557;DHT22;6344;49.932;8.308;2023-07-08T00:00:09;20.80;1.00
12557;DHT22;6344;49.932;8.308;2023-07-08T00:02:38;20.60;1.00
12557;DHT22;6344;49.932;8.308;2023-07-08T00:05:05;20.70;1.00
12557;DHT22;6344;49.932;8.308;2023-07-08T00:07:31;20.80;1.00
12557;DHT22;6344;49.932;8.308;2023-07-08T00:09:58;20.60;1.00
12557;DHT22;6344;49.932;8.308;2023-07-08T00:12:24;20.50;1.00
12557;DHT22;6344;49.932;8.308;2023-07-08T00:14:51;20.60;1.00
12557;DHT22;6344;49.932;8.308;2023-07-08T00:17:18;20.50;1.00
12557;DHT22;6344;49.932;8.308;2023-07-08T00:19:46;20.40;1.00
12557;DHT22;6344;49.932;8.308;2023-07-08T00:22:13;20.70;1.00
12557;DHT22;6344;49.932;8.308;2023-07-08T00:24:42;20.70;1.00
12557;DHT22;6344;49.932;8.308;2023-07-08T00:27:10;20.60;1.00
12557;DHT22;6344;49.932;8.308;2023-07-08T00:29:38;20.50;1.00
12557;DHT22;6344;49.932;8.308;2023-07-08T00:32:10;20.40;1.00
12557;DHT22;6344;49.932;8.308;2023-07-08T00:34:38;20.50;1.00
12557;DHT22;6344;49.932;8.308;2023-07-08T00:37:10;20.50;1.00
12557;DHT22;6344;49.932;8.308;2023-07-08T00:39:36;20.70;1.00
12557;DHT22;6344;49.932;8.308;2023-07-08T00:42:09;20.60;1.00
12557;DHT22;6344;49.932;8.308;2023-07-08T00:44:37;20.80;1.00
12557;DHT22;6344;49.932;8.308;2023-07-08T00:47:08;20.80;1.00
12557;DHT22;6344;49.932;8.308;2023-07-08T00:49:39;20.90;1.00
12557;DHT22;6344;49.932;8.308;2023-07-08T00:52:22;20.90;1.00
12557;DHT22;6344;49.932;8.308;2023-07-08T00:54:50;20.70;1.00
12557;DHT22;6344;49.932;8.308;2023-07-08T00:57:17;20.40;1.00
12557;DHT22;6344;49.932;8.308;2023-07-08T00:59:47;20.50;1.00
12557;DHT22;6344;49.932;8.308;2023-07-08T01:02:17;20.70;1.00
12557;DHT22;6344;49.932;8.308;2023-07-08T01:04:50;20.70;1.00
12557;DHT22;6344;49.932;8.308;2023-07-08T01:07:20;20.50;1.00
12557;DHT22;6344;49.932;8.308;2023-07-08T01:09:51;20.50;1.00
12557;DHT22;6344;49.932;8.308;2023-07-08T01:12:21;20.50;1.00
12557;DHT22;6344;49.932;8.308;2023-07-08T01:14:51;20.40;1.00
12557;DHT22;6344;49.932;8.308;2023-07-08T01:17:19;20.30;1.00
12557;DHT22;6344;49.932;8.308;2023-07-08T01:19:46;20.20;1.00
12557;DHT22;6344;49.932;8.308;2023-07-08T01:22:14;20.10;1.00
12557;DHT22;6344;49.932;8.308;2023-07-08T01:24:43;20.20;1.00
12557;DHT22;6344;49.932;8.308;2023-07-08T01:27:13;20.10;1.00
12557;DHT22;6344;49.932;8.308;2023-07-08T01:29:41;20.50;1.00
12557;DHT22;6344;49.932;8.308;2023-07-08T01:32:11;20.20;1.00
12557;DHT22;6344;49.932;8.308;2023-07-08T01:34:44;20.10;1.00
12557;DHT22;6344;49.932;8.308;2023-07-08T01:37:19;20.10;1.00
12557;DHT22;6344;49.932;8.308;2023-07-08T01:39:46;20.00;1.00
12557;DHT22;6344;49.932;8.308;2023-07-08T01:42:14;20.10;1.00
12557;DHT22;6344;49.932;8.308;2023-07-08T01:44:40;19.80;1.00
12557;DHT22;6344;49.932;8.308;2023-07-08T01:47:09;19.60;1.00
12557;DHT22;6344;49.932;8.308;2023-07-08T01:49:38;19.60;1.00
12557;DHT22;6344;49.932;8.308;2023-07-08T01:52:06;19.20;1.00
12557;DHT22;6344;49.932;8.308;2023-07-08T01:54:35;19.40;1.00
12557;DHT22;6344;49.932;8.308;2023-07-08T01:57:01;19.30;1.00
12557;DHT22;6344;49.932;8.308;2023-07-08T01:59:28;19.30;1.00
12557;DHT22;6344;49.932;8.308;2023-07-08T02:01:55;19.70;1.00
12557;DHT22;6344;49.932;8.308;2023-07-08T02:04:23;19.60;1.00
12557;DHT22;6344;49.932;8.308;2023-07-08T02:06:54;19.60;1.00
12557;DHT22;6344;49.932;8.308;2023-07-08T02:09:21;19.30;1.00
12557;DHT22;6344;49.932;8.308;2023-07-08T02:11:49;18.90;1.00
12557;DHT22;6344;49.932;8.308;2023-07-08T02:14:16;19.00;1.00
12557;DHT22;6344;49.932;8.308;2023-07-08T02:16:42;19.00;1.00
12557;DHT22;6344;49.932;8.308;2023-07-08T02:19:10;18.80;1.00
12557;DHT22;6344;49.932;8.308;2023-07-08T02:21:37;18.80;1.00
12557;DHT22;6344;49.932;8.308;2023-07-08T02:24:05;18.40;5.50
12557;DHT22;6344;49.932;8.308;2023-07-08T02:26:32;18.40;19.70
12557;DHT22;6344;49.932;8.308;2023-07-08T02:29:00;18.40;42.40
12557;DHT22;6344;49.932;8.308;2023-07-08T02:31:27;18.90;68.70
12557;DHT22;6344;49.932;8.308;2023-07-08T02:33:54;18.40;81.50
12557;DHT22;6344;49.932;8.308;2023-07-08T02:36:21;18.80;98.70
12557;DHT22;6344;49.932;8.308;2023-07-08T02:38:48;19.20;99.90
12557;DHT22;6344;49.932;8.308;2023-07-08T02:41:15;19.10;99.90
12557;DHT22;6344;49.932;8.308;2023-07-08T02:43:42;19.40;99.90
12557;DHT22;6344;49.932;8.308;2023-07-08T02:46:10;19.20;99.90
12557;DHT22;6344;49.932;8.308;2023-07-08T02:48:37;19.00;95.10
12557;DHT22;6344;49.932;8.308;2023-07-08T02:51:05;19.00;99.90
12557;DHT22;6344;49.932;8.308;2023-07-08T02:53:34;18.60;99.90
12557;DHT22;6344;49.932;8.308;2023-07-08T02:56:01;18.90;99.90
12557;DHT22;6344;49.932;8.308;2023-07-08T02:58:28;18.80;93.80
12557;DHT22;6344;49.932;8.308;2023-07-08T03:00:55;18.50;99.90
12557;DHT22;6344;49.932;8.308;2023-07-08T03:03:25;18.30;99.90
12557;DHT22;6344;49.932;8.308;2023-07-08T03:05:55;18.10;85.80
12557;DHT22;6344;49.932;8.308;2023-07-08T03:08:22;18.10;99.90
12557;DHT22;6344;49.932;8.308;2023-07-08T03:10:54;18.10;99.90
12557;DHT22;6344;49.932;8.308;2023-07-08T03:13:22;18.30;99.90
12557;DHT22;6344;49.932;8.308;2023-07-08T03:15:49;18.00;99.90
12557;DHT22;6344;49.932;8.308;2023-07-08T03:18:15;18.60;59.90
12557;DHT22;6344;49.932;8.308;2023-07-08T03:20:43;18.10;63.40
12557;DHT22;6344;49.932;8.308;2023-07-08T03:23:11;18.40;50.80
12557;DHT22;6344;49.932;8.308;2023-07-08T03:25:38;18.60;99.90
12557;DHT22;6344;49.932;8.308;2023-07-08T03:28:05;18.10;52.50
12557;DHT22;6344;49.932;8.308;2023-07-08T03:30:33;18.10;99.90
12557;DHT22;6344;49.932;8.308;2023-07-08T03:33:00;18.10;92.80
12557;DHT22;6344;49.932;8.308;2023-07-08T03:35:26;18.00;48.60
12557;DHT22;6344;49.932;8.308;2023-07-08T03:37:54;18.40;99.90
12557;DHT22;6344;49.932;8.308;2023-07-08T03:40:21;18.50;99.90
12557;DHT22;6344;49.932;8.308;2023-07-08T03:42:48;18.30;96.30
12557;DHT22;6344;49.932;8.308;2023-07-08T03:45:14;18.40;96.20
12557;DHT22;6344;49.932;8.308;2023-07-08T03:47:41;18.50;84.20
12557;DHT22;6344;49.932;8.308;2023-07-08T03:50:14;18.50;91.10
12557;DHT22;6344;49.932;8.308;2023-07-08T03:52:44;18.20;93.70
12557;DHT22;6344;49.932;8.308;2023-07-08T03:55:12;18.50;99.90
12557;DHT22;6344;49.932;8.308;2023-07-08T03:57:39;18.70;91.10
12557;DHT22;6344;49.932;8.308;2023-07-08T04:00:07;18.80;99.90
12557;DHT22;6344;49.932;8.308;2023-07-08T04:02:35;18.50;96.40
12557;DHT22;6344;49.932;8.308;2023-07-08T04:05:01;19.10;95.60
12557;DHT22;6344;49.932;8.308;2023-07-08T04:07:28;18.80;99.90
12557;DHT22;6344;49.932;8.308;2023-07-08T04:09:55;19.50;99.90
12557;DHT22;6344;49.932;8.308;2023-07-08T04:12:23;19.60;99.90
12557;DHT22;6344;49.932;8.308;2023-07-08T04:14:50;19.70;99.90
12557;DHT22;6344;49.932;8.308;2023-07-08T04:17:18;20.20;99.90
12557;DHT22;6344;49.932;8.308;2023-07-08T04:19:45;20.30;99.90
12557;DHT22;6344;49.932;8.308;2023-07-08T04:22:11;20.40;99.90
12557;DHT22;6344;49.932;8.308;2023-07-08T04:24:38;20.20;99.90
12557;DHT22;6344;49.932;8.308;2023-07-08T04:27:05;20.70;99.90
12557;DHT22;6344;49.932;8.308;2023-07-08T04:29:33;20.40;99.90
12557;DHT22;6344;49.932;8.308;2023-07-08T04:32:00;20.80;99.90
12557;DHT22;6344;49.932;8.308;2023-07-08T04:34:27;20.80;99.90
12557;DHT22;6344;49.932;8.308;2023-07-08T04:36:54;20.80;99.90
12557;DHT22;6344;49.932;8.308;2023-07-08T04:39:20;20.80;99.90
12557;DHT22;6344;49.932;8.308;2023-07-08T04:41:47;20.90;99.90
12557;DHT22;6344;49.932;8.308;2023-07-08T04:44:15;20.90;99.90
12557;DHT22;6344;49.932;8.308;2023-07-08T04:46:49;20.80;99.90
12557;DHT22;6344;49.932;8.308;2023-07-08T04:49:17;20.80;99.90
12557;DHT22;6344;49.932;8.308;2023-07-08T04:51:44;20.60;99.90
12557;DHT22;6344;49.932;8.308;2023-07-08T04:54:10;20.50;99.90
12557;DHT22;6344;49.932;8.308;2023-07-08T04:56:39;20.60;99.90
12557;DHT22;6344;49.932;8.308;2023-07-08T04:59:07;20.90;99.90
12557;DHT22;6344;49.932;8.308;2023-07-08T05:01:34;21.00;99.90
12557;DHT22;6344;49.932;8.308;2023-07-08T05:04:02;21.20;99.90
12557;DHT22;6344;49.932;8.308;2023-07-08T05:06:30;21.10;99.90
12557;DHT22;6344;49.932;8.308;2023-07-08T05:08:58;21.10;99.90
12557;DHT22;6344;49.932;8.308;2023-07-08T05:11:24;21.20;41.70
12557;DHT22;6344;49.932;8.308;2023-07-08T05:13:51;21.40;77.50
12557;DHT22;6344;49.932;8.308;2023-07-08T05:16:18;21.40;23.40
12557;DHT22;6344;49.932;8.308;2023-07-08T05:18:45;21.40;47.60
12557;DHT22;6344;49.932;8.308;2023-07-08T05:21:13;21.90;36.10
12557;DHT22;6344;49.932;8.308;2023-07-08T05:23:40;21.60;24.20
12557;DHT22;6344;49.932;8.308;2023-07-08T05:26:07;21.80;54.90
12557;DHT22;6344;49.932;8.308;2023-07-08T05:28:34;21.90;46.80
12557;DHT22;6344;49.932;8.308;2023-07-08T05:31:01;22.10;27.90
12557;DHT22;6344;49.932;8.308;2023-07-08T05:33:30;22.10;20.00
12557;DHT22;6344;49.932;8.308;2023-07-08T05:35:57;22.10;33.60
12557;DHT22;6344;49.932;8.308;2023-07-08T05:38:26;22.40;47.90
12557;DHT22;6344;49.932;8.308;2023-07-08T05:40:55;22.20;85.00
12557;DHT22;6344;49.932;8.308;2023-07-08T05:43:22;22.20;54.30
12557;DHT22;6344;49.932;8.308;2023-07-08T05:45:49;22.10;58.00
12557;DHT22;6344;49.932;8.308;2023-07-08T05:48:16;22.10;90.20
12557;DHT22;6344;49.932;8.308;2023-07-08T05:50:44;22.60;43.50
12557;DHT22;6344;49.932;8.308;2023-07-08T05:53:11;22.60;39.80
12557;DHT22;6344;49.932;8.308;2023-07-08T05:55:39;22.80;82.60
12557;DHT22;6344;49.932;8.308;2023-07-08T05:58:07;23.20;37.70
12557;DHT22;6344;49.932;8.308;2023-07-08T06:00:35;23.40;99.90
12557;DHT22;6344;49.932;8.308;2023-07-08T06:03:02;23.60;63.50
12557;DHT22;6344;49.932;8.308;2023-07-08T06:05:28;23.20;61.60
12557;DHT22;6344;49.932;8.308;2023-07-08T06:07:55;23.60;63.30
12557;DHT22;6344;49.932;8.308;2023-07-08T06:10:22;23.30;35.40
12557;DHT22;6344;49.932;8.308;2023-07-08T06:12:50;23.10;95.50
12557;DHT22;6344;49.932;8.308;2023-07-08T06:15:16;22.80;39.80
12557;DHT22;6344;49.932;8.308;2023-07-08T06:17:43;23.00;97.50
12557;DHT22;6344;49.932;8.308;2023-07-08T06:20:10;23.10;33.80
12557;DHT22;6344;49.932;8.308;2023-07-08T06:22:37;23.00;60.30
12557;DHT22;6344;49.932;8.308;2023-07-08T06:25:04;23.00;50.60
12557;DHT22;6344;49.932;8.308;2023-07-08T06:27:31;23.40;46.80
12557;DHT22;6344;49.932;8.308;2023-07-08T06:30:00;23.80;54.50
12557;DHT22;6344;49.932;8.308;2023-07-08T06:32:26;23.70;46.60
12557;DHT22;6344;49.932;8.308;2023-07-08T06:34:53;23.30;55.60
12557;DHT22;6344;49.932;8.308;2023-07-08T06:37:19;23.90;53.70
12557;DHT22;6344;49.932;8.308;2023-07-08T06:39:46;25.00;46.10
12557;DHT22;6344;49.932;8.308;2023-07-08T06:42:13;25.40;44.50
12557;DHT22;6344;49.932;8.308;2023-07-08T06:44:39;25.30;39.60
12557;DHT22;6344;49.932;8.308;2023-07-08T06:47:11;25.50;20.70
12557;DHT22;6344;49.932;8.308;2023-07-08T06:49:38;25.50;14.10
12557;DHT22;6344;49.932;8.308;2023-07-08T06:52:06;25.40;6.00
12557;DHT22;6344;49.932;8.308;2023-07-08T06:54:32;25.10;1.80
12557;DHT22;6344;49.932;8.308;2023-07-08T06:56:59;24.80;3.50
12557;DHT22;6344;49.932;8.308;2023-07-08T06:59:26;24.90;12.60
12557;DHT22;6344;49.932;8.308;2023-07-08T07:01:53;25.40;1.00
12557;DHT22;6344;49.932;8.308;2023-07-08T07:04:22;25.40;1.70
12557;DHT22;6344;49.932;8.308;2023-07-08T07:06:48;25.00;5.80
12557;DHT22;6344;49.932;8.308;2023-07-08T07:09:15;24.70;1.00
12557;DHT22;6344;49.932;8.308;2023-07-08T07:11:42;24.40;20.20
12557;DHT22;6344;49.932;8.308;2023-07-08T07:14:08;24.40;4.90
12557;DHT22;6344;49.932;8.308;2023-07-08T07:16:35;24.40;5.10
12557;DHT22;6344;49.932;8.308;2023-07-08T07:19:01;24.30;1.00
12557;DHT22;6344;49.932;8.308;2023-07-08T07:21:29;24.70;23.40
12557;DHT22;6344;49.932;8.308;2023-07-08T07:23:56;24.80;14.90
12557;DHT22;6344;49.932;8.308;2023-07-08T07:26:23;24.40;15.40
12557;DHT22;6344;49.932;8.308;2023-07-08T07:28:49;24.10;13.10
12557;DHT22;6344;49.932;8.308;2023-07-08T07:31:16;24.00;7.00
12557;DHT22;6344;49.932;8.308;2023-07-08T07:33:43;24.10;19.10
12557;DHT22;6344;49.932;8.308;2023-07-08T07:36:09;24.50;27.80
12557;DHT22;6344;49.932;8.308;2023-07-08T07:38:37;25.10;27.80
12557;DHT22;6344;49.932;8.308;2023-07-08T07:41:04;25.80;21.90
12557;DHT22;6344;49.932;8.308;2023-07-08T07:43:32;26.50;25.70
12557;DHT22;6344;49.932;8.308;2023-07-08T07:45:59;27.00;13.40
12557;DHT22;6344;49.932;8.308;2023-07-08T07:48:25;27.70;17.30
12557;DHT22;6344;49.932;8.308;2023-07-08T07:50:52;28.70;20.00
12557;DHT22;6344;49.932;8.308;2023-07-08T07:53:19;29.40;1.00
12557;DHT22;6344;49.932;8.308;2023-07-08T07:55:47;28.70;1.00
12557;DHT22;6344;49.932;8.308;2023-07-08T07:58:14;29.00;1.00
12557;DHT22;6344;49.932;8.308;2023-07-08T08:00:41;29.90;1.00
12557;DHT22;6344;49.932;8.308;2023-07-08T08:03:07;29.70;1.00
12557;DHT22;6344;49.932;8.308;2023-07-08T08:05:34;29.80;1.00
12557;DHT22;6344;49.932;8.308;2023-07-08T08:08:00;29.00;1.00
12557;DHT22;6344;49.932;8.308;2023-07-08T08:10:29;28.40;1.00
12557;DHT22;6344;49.932;8.308;2023-07-08T08:12:57;27.90;1.00
12557;DHT22;6344;49.932;8.308;2023-07-08T08:15:23;27.80;1.00
12557;DHT22;6344;49.932;8.308;2023-07-08T08:17:50;27.60;1.00
12557;DHT22;6344;49.932;8.308;2023-07-08T08:20:18;27.80;1.00
12557;DHT22;6344;49.932;8.308;2023-07-08T08:22:45;28.60;1.00
12557;DHT22;6344;49.932;8.308;2023-07-08T08:25:13;28.90;1.00
12557;DHT22;6344;49.932;8.308;2023-07-08T08:27:40;28.70;1.00
12557;DHT22;6344;49.932;8.308;2023-07-08T08:30:08;28.70;1.00
12557;DHT22;6344;49.932;8.308;2023-07-08T08:32:35;29.50;1.00
12557;DHT22;6344;49.932;8.308;2023-07-08T08:35:02;30.30;1.00
12557;DHT22;6344;49.932;8.308;2023-07-08T08:37:29;31.00;1.00
12557;DHT22;6344;49.932;8.308;2023-07-08T08:39:56;31.60;1.00
12557;DHT22;6344;49.932;8.308;2023-07-08T08:42:27;32.50;1.00
12557;DHT22;6344;49.932;8.308;2023-07-08T08:44:54;32.60;1.00
12557;DHT22;6344;49.932;8.308;2023-07-08T08:47:37;34.20;1.00
12557;DHT22;6344;49.932;8.308;2023-07-08T08:50:17;34.00;1.00
12557;DHT22;6344;49.932;8.308;2023-07-08T08:52:49;33.40;1.00
12557;DHT22;6344;49.932;8.308;2023-07-08T08:55:16;32.50;1.00
12557;DHT22;6344;49.932;8.308;2023-07-08T08:57:48;32.30;1.00
12557;DHT22;6344;49.932;8.308;2023-07-08T09:00:21;32.00;1.00
12557;DHT22;6344;49.932;8.308;2023-07-08T09:02:57;32.20;1.00
12557;DHT22;6344;49.932;8.308;2023-07-08T09:05:26;32.10;1.00
12557;DHT22;6344;49.932;8.308;2023-07-08T09:08:02;32.10;1.00
12557;DHT22;6344;49.932;8.308;2023-07-08T09:10:39;32.20;1.00
12557;DHT22;6344;49.932;8.308;2023-07-08T09:13:16;30.90;1.00
12557;DHT22;6344;49.932;8.308;2023-07-08T09:15:43;31.10;1.00
12557;DHT22;6344;49.932;8.308;2023-07-08T09:18:18;31.90;1.00
12557;DHT22;6344;49.932;8.308;2023-07-08T09:20:46;31.70;1.00
12557;DHT22;6344;49.932;8.308;2023-07-08T09:23:18;32.50;1.00
12557;DHT22;6344;49.932;8.308;2023-07-08T09:25:51;33.60;1.00
12557;DHT22;6344;49.932;8.308;2023-07-08T09:28:19;34.40;1.00
12557;DHT22;6344;49.932;8.308;2023-07-08T09:30:48;35.90;1.00
12557;DHT22;6344;49.932;8.308;2023-07-08T09:33:16;36.00;1.00
12557;DHT22;6344;49.932;8.308;2023-07-08T09:35:45;36.70;1.00
12557;DHT22;6344;49.932;8.308;2023-07-08T09:38:15;37.30;1.00
12557;DHT22;6344;49.932;8.308;2023-07-08T09:40:47;36.70;1.00
12557;DHT22;6344;49.932;8.308;2023-07-08T09:43:20;36.60;1.00
12557;DHT22;6344;49.932;8.308;2023-07-08T09:45:50;36.00;1.00
12557;DHT22;6344;49.932;8.308;2023-07-08T09:48:21;35.80;1.00
12557;DHT22;6344;49.932;8.308;2023-07-08T09:50:49;36.00;1.00
12557;DHT22;6344;49.932;8.308;2023-07-08T09:53:17;36.50;1.00
12557;DHT22;6344;49.932;8.308;2023-07-08T09:55:44;36.30;1.00
12557;DHT22;6344;49.932;8.308;2023-07-08T09:58:23;36.90;1.00
12557;DHT22;6344;49.932;8.308;2023-07-08T10:00:53;37.20;1.00
12557;DHT22;6344;49.932;8.308;2023-07-08T10:03:23;36.50;1.00
12557;DHT22;6344;49.932;8.308;2023-07-08T10:05:52;36.90;1.00
12557;DHT22;6344;49.932;8.308;2023-07-08T10:08:24;37.40;1.00
12557;DHT22;6344;49.932;8.308;2023-07-08T10:10:58;36.80;1.00
12557;DHT22;6344;49.932;8.308;2023-07-08T10:13:30;35.70;1.00
12557;DHT22;6344;49.932;8.308;2023-07-08T10:16:06;35.10;1.00
12557;DHT22;6344;49.932;8.308;2023-07-08T10:18:37;35.00;1.00
12557;DHT22;6344;49.932;8.308;2023-07-08T10:21:11;34.60;1.00
12557;DHT22;6344;49.932;8.308;2023-07-08T10:23:43;35.50;1.00
12557;DHT22;6344;49.932;8.308;2023-07-08T10:26:25;35.20;1.00
12557;DHT22;6344;49.932;8.308;2023-07-08T10:29:02;35.30;1.00
12557;DHT22;6344;49.932;8.308;2023-07-08T10:31:39;35.60;1.00
12557;DHT22;6344;49.932;8.308;2023-07-08T10:34:27;36.10;1.00
12557;DHT22;6344;49.932;8.308;2023-07-08T10:37:03;36.70;1.00
12557;DHT22;6344;49.932;8.308;2023-07-08T10:39:52;37.60;1.00
12557;DHT22;6344;49.932;8.308;2023-07-08T10:42:31;37.00;1.00
12557;DHT22;6344;49.932;8.308;2023-07-08T10:45:06;37.20;1.00
12557;DHT22;6344;49.932;8.308;2023-07-08T10:47:43;38.60;1.00
12557;DHT22;6344;49.932;8.308;2023-07-08T10:50:30;38.50;1.00
12557;DHT22;6344;49.932;8.308;2023-07-08T10:53:06;37.20;1.00
12557;DHT22;6344;49.932;8.308;2023-07-08T10:55:46;37.40;1.00
12557;DHT22;6344;49.932;8.308;2023-07-08T10:58:26;38.20;1.00
12557;DHT22;6344;49.932;8.308;2023-07-08T11:01:03;38.20;1.00
12557;DHT22;6344;49.932;8.308;2023-07-08T11:03:43;39.10;1.00
12557;DHT22;6344;49.932;8.308;2023-07-08T11:06:18;38.60;1.00
12557;DHT22;6344;49.932;8.308;2023-07-08T11:08:51;39.30;1.00
12557;DHT22;6344;49.932;8.308;2023-07-08T11:11:29;39.60;1.00
12557;DHT22;6344;49.932;8.308;2023-07-08T11:14:03;39.50;1.00
12557;DHT22;6344;49.932;8.308;2023-07-08T11:16:33;38.70;1.00
12557;DHT22;6344;49.932;8.308;2023-07-08T11:19:05;39.00;1.00
12557;DHT22;6344;49.932;8.308;2023-07-08T11:21:37;39.00;1.00
12557;DHT22;6344;49.932;8.308;2023-07-08T11:24:12;39.40;1.00
12557;DHT22;6344;49.932;8.308;2023-07-08T11:26:43;38.90;1.00
12557;DHT22;6344;49.932;8.308;2023-07-08T11:29:15;38.70;1.00
12557;DHT22;6344;49.932;8.308;2023-07-08T11:31:44;39.10;1.00
12557;DHT22;6344;49.932;8.308;2023-07-08T11:34:14;38.50;1.00
12557;DHT22;6344;49.932;8.308;2023-07-08T11:36:43;39.20;1.00
12557;DHT22;6344;49.932;8.308;2023-07-08T11:39:27;39.70;1.00
12557;DHT22;6344;49.932;8.308;2023-07-08T11:42:05;38.90;1.00
12557;DHT22;6344;49.932;8.308;2023-07-08T11:44:41;39.40;1.00
12557;DHT22;6344;49.932;8.308;2023-07-08T11:47:16;39.90;1.00
12557;DHT22;6344;49.932;8.308;2023-07-08T11:49:46;39.60;1.00
12557;DHT22;6344;49.932;8.308;2023-07-08T11:52:18;39.80;1.00
12557;DHT22;6344;49.932;8.308;2023-07-08T11:54:46;39.40;1.00
12557;DHT22;6344;49.932;8.308;2023-07-08T11:57:18;39.50;1.00
12557;DHT22;6344;49.932;8.308;2023-07-08T11:59:46;39.20;1.00
12557;DHT22;6344;49.932;8.308;2023-07-08T12:02:16;38.60;1.00
12557;DHT22;6344;49.932;8.308;2023-07-08T12:04:56;38.60;1.00
12557;DHT22;6344;49.932;8.308;2023-07-08T12:07:31;39.40;1.00
12557;DHT22;6344;49.932;8.308;2023-07-08T12:10:00;39.20;1.00
12557;DHT22;6344;49.932;8.308;2023-07-08T12:12:34;39.10;1.00
12557;DHT22;6344;49.932;8.308;2023-07-08T12:15:11;39.30;1.00
12557;DHT22;6344;49.932;8.308;2023-07-08T12:17:39;40.20;1.00
12557;DHT22;6344;49.932;8.308;2023-07-08T12:20:16;39.90;1.00
12557;DHT22;6344;49.932;8.308;2023-07-08T12:22:44;39.40;1.00
12557;DHT22;6344;49.932;8.308;2023-07-08T12:25:13;39.90;1.00
12557;DHT22;6344;49.932;8.308;2023-07-08T12:27:41;38.90;1.00
12557;DHT22;6344;49.932;8.308;2023-07-08T12:30:09;38.40;1.00
12557;DHT22;6344;49.932;8.308;2023-07-08T12:32:37;38.40;1.00
12557;DHT22;6344;49.932;8.308;2023-07-08T12:35:05;39.60;1.00
12557;DHT22;6344;49.932;8.308;2023-07-08T12:37:32;39.90;1.00
12557;DHT22;6344;49.932;8.308;2023-07-08T12:40:00;40.30;1.00
12557;DHT22;6344;49.932;8.308;2023-07-08T12:42:31;40.00;1.00
12557;DHT22;6344;49.932;8.308;2023-07-08T12:44:58;39.90;1.00
12557;DHT22;6344;49.932;8.308;2023-07-08T12:47:24;40.10;1.00
12557;DHT22;6344;49.932;8.308;2023-07-08T12:49:51;40.10;1.00
12557;DHT22;6344;49.932;8.308;2023-07-08T12:52:20;39.80;1.00
12557;DHT22;6344;49.932;8.308;2023-07-08T12:54:47;40.50;1.00
12557;DHT22;6344;49.932;8.308;2023-07-08T12:57:17;40.90;1.00
12557;DHT22;6344;49.932;8.308;2023-07-08T12:59:45;40.10;1.00
12557;DHT22;6344;49.932;8.308;2023-07-08T13:02:16;40.30;1.00
12557;DHT22;6344;49.932;8.308;2023-07-08T13:04:44;40.50;1.00
12557;DHT22;6344;49.932;8.308;2023-07-08T13:07:22;41.20;1.00
12557;DHT22;6344;49.932;8.308;2023-07-08T13:09:51;40.50;1.00
12557;DHT22;6344;49.932;8.308;2023-07-08T13:12:21;41.00;1.00
12557;DHT22;6344;49.932;8.308;2023-07-08T13:14:51;41.50;1.00
12557;DHT22;6344;49.932;8.308;2023-07-08T13:17:19;41.50;1.00
12557;DHT22;6344;49.932;8.308;2023-07-08T13:19:46;40.90;1.00
12557;DHT22;6344;49.932;8.308;2023-07-08T13:22:15;41.00;1.00
12557;DHT22;6344;49.932;8.308;2023-07-08T13:24:44;41.20;1.00
12557;DHT22;6344;49.932;8.308;2023-07-08T13:27:20;42.50;1.00
12557;DHT22;6344;49.932;8.308;2023-07-08T13:29:48;42.10;1.00
12557;DHT22;6344;49.932;8.308;2023-07-08T13:32:17;42.10;99.90
12557;DHT22;6344;49.932;8.308;2023-07-08T13:34:43;41.90;1.00
12557;DHT22;6344;49.932;8.308;2023-07-08T13:37:12;41.80;1.00
12557;DHT22;6344;49.932;8.308;2023-07-08T13:39:43;42.20;1.00
12557;DHT22;6344;49.932;8.308;2023-07-08T13:42:11;42.20;1.00
12557;DHT22;6344;49.932;8.308;2023-07-08T13:44:43;41.90;1.00
12557;DHT22;6344;49.932;8.308;2023-07-08T13:47:21;42.50;1.00
12557;DHT22;6344;49.932;8.308;2023-07-08T13:49:49;41.30;1.00
12557;DHT22;6344;49.932;8.308;2023-07-08T13:52:20;41.00;1.00
12557;DHT22;6344;49.932;8.308;2023-07-08T13:54:49;41.50;1.00
12557;DHT22;6344;49.932;8.308;2023-07-08T13:57:20;41.70;1.00
12557;DHT22;6344;49.932;8.308;2023-07-08T13:59:48;41.50;1.00
12557;DHT22;6344;49.932;8.308;2023-07-08T14:02:16;41.10;1.00
12557;DHT22;6344;49.932;8.308;2023-07-08T14:04:44;41.70;1.00
12557;DHT22;6344;49.932;8.308;2023-07-08T14:07:15;42.30;1.00
12557;DHT22;6344;49.932;8.308;2023-07-08T14:09:42;41.90;1.00
12557;DHT22;6344;49.932;8.308;2023-07-08T14:12:09;41.80;1.00
12557;DHT22;6344;49.932;8.308;2023-07-08T14:14:36;41.60;1.00
12557;DHT22;6344;49.932;8.308;2023-07-08T14:17:03;41.10;1.00
12557;DHT22;6344;49.932;8.308;2023-07-08T14:19:31;41.70;1.00
12557;DHT22;6344;49.932;8.308;2023-07-08T14:22:02;42.00;1.00
12557;DHT22;6344;49.932;8.308;2023-07-08T14:24:36;40.90;1.00
12557;DHT22;6344;49.932;8.308;2023-07-08T14:27:03;41.10;1.00
12557;DHT22;6344;49.932;8.308;2023-07-08T14:29:30;41.20;1.00
12557;DHT22;6344;49.932;8.308;2023-07-08T14:31:56;41.00;1.00
12557;DHT22;6344;49.932;8.308;2023-07-08T14:34:25;40.90;1.00
12557;DHT22;6344;49.932;8.308;2023-07-08T14:36:52;41.30;1.00
12557;DHT22;6344;49.932;8.308;2023-07-08T14:39:20;40.80;1.00
12557;DHT22;6344;49.932;8.308;2023-07-08T14:41:49;40.80;1.00
12557;DHT22;6344;49.932;8.308;2023-07-08T14:44:21;40.80;1.00
12557;DHT22;6344;49.932;8.308;2023-07-08T14:46:49;41.00;1.00
12557;DHT22;6344;49.932;8.308;2023-07-08T14:49:18;41.00;1.00
12557;DHT22;6344;49.932;8.308;2023-07-08T14:51:45;41.30;1.00
12557;DHT22;6344;49.932;8.308;2023-07-08T14:54:12;40.70;1.00
12557;DHT22;6344;49.932;8.308;2023-07-08T14:56:41;40.00;1.00
12557;DHT22;6344;49.932;8.308;2023-07-08T14:59:13;39.70;1.00
12557;DHT22;6344;49.932;8.308;2023-07-08T15:01:41;39.30;1.00
12557;DHT22;6344;49.932;8.308;2023-07-08T15:04:10;39.90;1.00
12557;DHT22;6344;49.932;8.308;2023-07-08T15:06:37;40.20;1.00
12557;DHT22;6344;49.932;8.308;2023-07-08T15:09:03;40.90;1.00
12557;DHT22;6344;49.932;8.308;2023-07-08T15:11:32;40.80;1.00
12557;DHT22;6344;49.932;8.308;2023-07-08T15:14:01;40.20;1.00
12557;DHT22;6344;49.932;8.308;2023-07-08T15:16:28;39.90;1.00
12557;DHT22;6344;49.932;8.308;2023-07-08T15:18:55;39.60;1.00
12557;DHT22;6344;49.932;8.308;2023-07-08T15:21:22;39.80;1.00
12557;DHT22;6344;49.932;8.308;2023-07-08T15:23:49;39.30;1.00
12557;DHT22;6344;49.932;8.308;2023-07-08T15:26:16;39.50;1.00
12557;DHT22;6344;49.932;8.308;2023-07-08T15:28:43;39.40;1.00
12557;DHT22;6344;49.932;8.308;2023-07-08T15:31:15;39.50;1.00
12557;DHT22;6344;49.932;8.308;2023-07-08T15:33:42;39.70;1.00
12557;DHT22;6344;49.932;8.308;2023-07-08T15:36:10;40.20;1.00
12557;DHT22;6344;49.932;8.308;2023-07-08T15:38:37;40.30;1.00
12557;DHT22;6344;49.932;8.308;2023-07-08T15:41:03;39.40;1.00
12557;DHT22;6344;49.932;8.308;2023-07-08T15:43:31;38.40;1.00
12557;DHT22;6344;49.932;8.308;2023-07-08T15:46:01;37.70;1.00
12557;DHT22;6344;49.932;8.308;2023-07-08T15:48:29;37.40;1.00
12557;DHT22;6344;49.932;8.308;2023-07-08T15:50:55;36.90;1.00
12557;DHT22;6344;49.932;8.308;2023-07-08T15:53:22;36.40;1.00
12557;DHT22;6344;49.932;8.308;2023-07-08T15:55:49;35.90;1.00
12557;DHT22;6344;49.932;8.308;2023-07-08T15:58:23;35.50;1.00
12557;DHT22;6344;49.932;8.308;2023-07-08T16:00:51;35.00;1.00
12557;DHT22;6344;49.932;8.308;2023-07-08T16:03:22;34.80;1.00
12557;DHT22;6344;49.932;8.308;2023-07-08T16:05:51;34.50;1.00
12557;DHT22;6344;49.932;8.308;2023-07-08T16:08:19;34.50;1.00